Time;durP1;ratioP1;P1;durP2;ratioP2;P2;SDS_P1;SDS_P2;PMS_P1;PMS_P2;Temp;Humidity;BMP_temperature;BMP_pressure;BME280_temperature;BME280_humidity;BME280_pressure;Samples;Min_cycle;Max_cycle;Signal;HPM_P1;HPM_P2
2023/05/11 00:00:30;;;;;;;0.10;0.10;;;;;;;;;;4954876;28;20046;-78
2023/05/11 00:03:16;;;;;;;0.10;0.10;;;;;;;;;;4955779;28;20074;-78
2023/05/11 00:06:02;;;;;;;0.10;0.10;;;;;;;;;;4955767;28;20488;-78
2023/05/11 00:08:49;;;;;;;0.10;0.10;;;;;;;;;;4956224;28;20060;-78
2023/05/11 00:11:35;;;;;;;0.10;0.10;;;;;;;;;;4956799;28;20454;-78
2023/05/11 00:14:21;;;;;;;0.10;0.10;;;;;;;;;;4958232;28;20976;-78
2023/05/11 00:17:07;;;;;;;0.10;0.10;;;;;;;;;;4957231;28;20653;-78
2023/05/11 00:19:52;;;;;;;0.20;0.20;;;;;;;;;;4941171;28;20074;-78
2023/05/11 00:22:38;;;;;;;0.10;0.10;;;;;;;;;;4956041;28;20103;-78
2023/05/11 00:25:24;;;;;;;0.10;0.10;;;;;;;;;;4958718;28;20045;-78
2023/05/11 00:28:10;;;;;;;0.10;0.10;;;;;;;;;;4948145;28;21058;-78
2023/05/11 00:30:56;;;;;;;0.10;0.10;;;;;;;;;;4936558;28;20050;-78
2023/05/11 00:33:42;;;;;;;0.10;0.10;;;;;;;;;;4936630;28;20089;-77
2023/05/11 00:36:27;;;;;;;0.10;0.10;;;;;;;;;;4936329;28;20172;-78
2023/05/11 00:39:13;;;;;;;0.10;0.10;;;;;;;;;;4936517;28;20503;-78
2023/05/11 00:41:59;;;;;;;0.10;0.10;;;;;;;;;;4938230;28;20043;-77
2023/05/11 00:44:46;;;;;;;0.10;0.10;;;;;;;;;;4937555;28;20481;-78
2023/05/11 00:47:31;;;;;;;0.10;0.10;;;;;;;;;;4930593;28;20042;-78
2023/05/11 00:50:19;;;;;;;0.20;0.20;;;;;;;;;;4936365;28;20039;-78
2023/05/11 00:53:05;;;;;;;0.20;0.20;;;;;;;;;;4923062;28;20138;-78
2023/05/11 00:55:52;;;;;;;0.10;0.10;;;;;;;;;;4941000;28;20476;-78
2023/05/11 00:58:41;;;;;;;0.10;0.10;;;;;;;;;;4919344;28;20031;-78
2023/05/11 01:01:27;;;;;;;0.10;0.10;;;;;;;;;;4939133;28;20134;-78
2023/05/11 01:04:13;;;;;;;0.20;0.20;;;;;;;;;;4939592;28;20643;-78
2023/05/11 01:07:10;;;;;;;0.10;0.10;;;;;;;;;;4939123;28;20035;-78
2023/05/11 01:09:56;;;;;;;0.10;0.10;;;;;;;;;;4936388;28;20130;-77
2023/05/11 01:13:01;;;;;;;0.10;0.10;;;;;;;;;;4925863;28;20278;-78
2023/05/11 01:15:52;;;;;;;0.10;0.10;;;;;;;;;;4925040;28;20046;-77
2023/05/11 01:18:45;;;;;;;0.10;0.10;;;;;;;;;;4908769;28;20548;-78
2023/05/11 01:21:33;;;;;;;;;;;;;;;;;;4921792;28;20043;-78
2023/05/11 01:24:21;;;;;;;0.10;0.10;;;;;;;;;;4922948;28;19918;-77
2023/05/11 01:27:26;;;;;;;0.13;0.13;;;;;;;;;;4939928;28;20504;-77
2023/05/11 01:30:30;;;;;;;0.10;0.10;;;;;;;;;;4924264;28;20145;-77
2023/05/11 01:33:18;;;;;;;0.10;0.10;;;;;;;;;;4939313;28;20035;-77
2023/05/11 01:36:06;;;;;;;0.10;0.10;;;;;;;;;;4938053;28;20484;-78
2023/05/11 01:38:53;;;;;;;0.10;0.10;;;;;;;;;;4937798;28;20106;-77
2023/05/11 01:41:40;;;;;;;0.20;0.20;;;;;;;;;;4937086;28;20330;-76
2023/05/11 01:44:30;;;;;;;0.20;0.20;;;;;;;;;;4933618;28;20531;-77
2023/05/11 01:47:16;;;;;;;0.10;0.10;;;;;;;;;;4926816;28;20488;-77
2023/05/11 01:50:05;;;;;;;0.10;0.10;;;;;;;;;;4941042;28;20321;-77
2023/05/11 01:52:51;;;;;;;0.10;0.10;;;;;;;;;;4935363;28;20043;-77
2023/05/11 01:55:38;;;;;;;0.10;0.10;;;;;;;;;;4940819;28;20743;-77
2023/05/11 01:58:25;;;;;;;0.10;0.10;;;;;;;;;;4937308;28;20035;-76
2023/05/11 02:01:13;;;;;;;0.10;0.10;;;;;;;;;;4925033;28;20047;-77
2023/05/11 02:03:59;;;;;;;0.15;0.10;;;;;;;;;;4938838;28;20035;-77
2023/05/11 02:06:47;;;;;;;0.20;0.20;;;;;;;;;;4919190;28;20300;-76
2023/05/11 02:09:33;;;;;;;0.10;0.10;;;;;;;;;;4920642;28;20039;-76
2023/05/11 02:12:21;;;;;;;0.10;0.10;;;;;;;;;;4923727;28;20445;-77
2023/05/11 02:15:08;;;;;;;0.10;0.10;;;;;;;;;;4920130;28;20226;-76
2023/05/11 02:17:54;;;;;;;0.10;0.10;;;;;;;;;;4918834;28;20031;-77
2023/05/11 02:20:41;;;;;;;0.20;0.20;;;;;;;;;;4936822;28;20551;-77
2023/05/11 02:23:30;;;;;;;0.10;0.10;;;;;;;;;;4938151;28;20031;-77
2023/05/11 02:26:15;;;;;;;0.10;0.10;;;;;;;;;;4936114;28;20035;-77
2023/05/11 02:29:01;;;;;;;0.10;0.10;;;;;;;;;;4923841;28;20234;-77
2023/05/11 02:31:48;;;;;;;0.10;0.10;;;;;;;;;;4920564;28;20035;-77
2023/05/11 02:34:39;;;;;;;0.10;0.10;;;;;;;;;;4923517;28;20122;-76
2023/05/11 02:37:26;;;;;;;0.17;0.17;;;;;;;;;;4908096;28;20493;-77
2023/05/11 02:40:18;;;;;;;0.10;0.10;;;;;;;;;;4924228;28;20043;-77
2023/05/11 02:43:10;;;;;;;0.10;0.10;;;;;;;;;;4926022;28;20405;-76
2023/05/11 02:46:01;;;;;;;0.10;0.10;;;;;;;;;;4922267;28;20035;-77
2023/05/11 02:48:53;;;;;;;0.10;0.10;;;;;;;;;;4908498;28;20031;-76
2023/05/11 02:51:42;;;;;;;0.10;0.10;;;;;;;;;;4905235;28;20690;-77
2023/05/11 02:54:29;;;;;;;0.10;0.10;;;;;;;;;;4936979;28;20118;-77
2023/05/11 02:57:17;;;;;;;0.10;0.10;;;;;;;;;;4921576;28;20471;-76
2023/05/11 03:00:04;;;;;;;0.10;0.10;;;;;;;;;;4906547;28;20035;-77
2023/05/11 03:02:50;;;;;;;0.10;0.10;;;;;;;;;;4937750;28;20074;-77
2023/05/11 03:05:39;;;;;;;0.10;0.10;;;;;;;;;;4936230;28;20047;-76
2023/05/11 03:08:25;;;;;;;0.10;0.10;;;;;;;;;;4937381;28;20042;-77
2023/05/11 03:11:13;;;;;;;0.20;0.20;;;;;;;;;;4921709;28;20046;-77
2023/05/11 03:14:00;;;;;;;0.10;0.10;;;;;;;;;;4935421;28;20317;-76
2023/05/11 03:16:46;;;;;;;0.10;0.10;;;;;;;;;;4920944;28;20035;-76
2023/05/11 03:19:34;;;;;;;0.10;0.10;;;;;;;;;;4936602;28;20043;-77
2023/05/11 03:22:20;;;;;;;0.10;0.10;;;;;;;;;;4923314;28;20043;-77
2023/05/11 03:25:07;;;;;;;0.10;0.10;;;;;;;;;;4937942;28;20470;-77
2023/05/11 03:27:54;;;;;;;0.10;0.10;;;;;;;;;;4934583;28;20083;-76
2023/05/11 03:30:43;;;;;;;0.10;0.10;;;;;;;;;;4919675;28;20035;-76
2023/05/11 03:33:29;;;;;;;0.10;0.10;;;;;;;;;;4934236;28;20035;-76
2023/05/11 03:36:18;;;;;;;0.10;0.10;;;;;;;;;;4936822;28;20396;-76
2023/05/11 03:39:08;;;;;;;0.10;0.10;;;;;;;;;;4920873;28;20035;-76
2023/05/11 03:41:55;;;;;;;0.10;0.10;;;;;;;;;;4921731;28;20068;-77
2023/05/11 03:44:43;;;;;;;0.10;0.10;;;;;;;;;;4918650;29;20053;-77
2023/05/11 03:47:30;;;;;;;0.10;0.10;;;;;;;;;;4921580;28;20494;-76
2023/05/11 03:50:16;;;;;;;0.10;0.10;;;;;;;;;;4919863;28;20126;-76
2023/05/11 03:53:02;;;;;;;0.10;0.10;;;;;;;;;;4922017;28;20101;-76
2023/05/11 03:55:48;;;;;;;0.10;0.10;;;;;;;;;;4937674;28;20038;-76
2023/05/11 03:58:39;;;;;;;0.10;0.10;;;;;;;;;;4934503;28;20035;-76
2023/05/11 04:01:25;;;;;;;0.10;0.10;;;;;;;;;;4921905;28;20129;-76
2023/05/11 04:04:11;;;;;;;0.10;0.10;;;;;;;;;;4937414;28;20043;-76
2023/05/11 04:06:57;;;;;;;0.10;0.10;;;;;;;;;;4937059;28;20489;-77
2023/05/11 04:09:43;;;;;;;0.10;0.10;;;;;;;;;;4936379;28;20081;-77
2023/05/11 04:12:28;;;;;;;0.10;0.10;;;;;;;;;;4922739;28;20047;-77
2023/05/11 04:15:14;;;;;;;0.10;0.10;;;;;;;;;;4938783;28;20469;-76
2023/05/11 04:18:00;;;;;;;0.10;0.10;;;;;;;;;;4922987;28;20558;-77
2023/05/11 04:20:46;;;;;;;0.10;0.10;;;;;;;;;;4922683;28;20416;-77
2023/05/11 04:23:31;;;;;;;0.20;0.20;;;;;;;;;;4923614;28;20035;-77
2023/05/11 04:26:17;;;;;;;0.20;0.20;;;;;;;;;;4939432;28;20039;-76
2023/05/11 04:29:03;;;;;;;0.20;0.20;;;;;;;;;;4956846;28;20484;-76
2023/05/11 04:31:50;;;;;;;0.70;0.40;;;;;;;;;;4961237;28;20174;-76
2023/05/11 04:34:37;;;;;;;0.60;0.40;;;;;;;;;;4961063;28;20356;-77
2023/05/11 04:37:25;;;;;;;0.60;0.40;;;;;;;;;;4959583;28;20399;-77
2023/05/11 04:40:12;;;;;;;0.20;0.20;;;;;;;;;;4946460;28;20057;-77
2023/05/11 04:43:01;;;;;;;1.20;0.60;;;;;;;;;;4950070;28;20069;-77
2023/05/11 04:45:48;;;;;;;1.10;0.57;;;;;;;;;;4945599;28;20180;-76
2023/05/11 04:48:34;;;;;;;0.45;0.30;;;;;;;;;;4945215;28;20054;-76
2023/05/11 04:51:20;;;;;;;0.68;0.40;;;;;;;;;;4944860;28;20038;-77
2023/05/11 04:54:06;;;;;;;0.30;0.20;;;;;;;;;;4960704;28;20543;-77
2023/05/11 04:56:52;;;;;;;0.10;0.10;;;;;;;;;;4961947;28;20061;-76
2023/05/11 04:59:38;;;;;;;0.10;0.10;;;;;;;;;;4945330;28;20026;-77
2023/05/11 05:02:24;;;;;;;0.10;0.10;;;;;;;;;;4960454;28;20765;-77
2023/05/11 05:05:10;;;;;;;0.10;0.10;;;;;;;;;;4957680;28;20051;-77
2023/05/11 05:07:55;;;;;;;0.10;0.10;;;;;;;;;;4946718;28;20027;-77
2023/05/11 05:10:41;;;;;;;0.10;0.10;;;;;;;;;;4960145;28;20488;-78
2023/05/11 05:13:27;;;;;;;0.13;0.13;;;;;;;;;;4946492;28;20396;-78
2023/05/11 05:16:13;;;;;;;0.10;0.10;;;;;;;;;;4961514;28;20035;-78
2023/05/11 05:18:59;;;;;;;0.10;0.10;;;;;;;;;;4944337;28;20062;-78
2023/05/11 05:21:47;;;;;;;0.10;0.10;;;;;;;;;;4959403;28;20039;-78
2023/05/11 05:24:34;;;;;;;0.20;0.20;;;;;;;;;;4946029;28;20399;-77
2023/05/11 05:27:20;;;;;;;0.20;0.20;;;;;;;;;;4960441;28;20217;-77
2023/05/11 05:30:07;;;;;;;0.15;0.15;;;;;;;;;;4956055;28;20503;-77
2023/05/11 05:32:53;;;;;;;0.30;0.30;;;;;;;;;;4958329;28;20062;-78
2023/05/11 05:35:41;;;;;;;0.25;0.20;;;;;;;;;;4958544;28;20091;-78
2023/05/11 05:38:27;;;;;;;0.13;0.13;;;;;;;;;;4945275;28;20559;-78
2023/05/11 05:41:13;;;;;;;0.10;0.10;;;;;;;;;;4959208;28;20034;-78
2023/05/11 05:44:01;;;;;;;0.10;0.10;;;;;;;;;;4945208;28;20050;-78
2023/05/11 05:46:47;;;;;;;0.10;0.10;;;;;;;;;;4958018;28;20139;-78
2023/05/11 05:49:33;;;;;;;0.10;0.10;;;;;;;;;;4942572;28;20493;-78
2023/05/11 05:52:19;;;;;;;0.20;0.20;;;;;;;;;;4943067;28;20031;-78
2023/05/11 05:55:06;;;;;;;0.10;0.10;;;;;;;;;;4944924;28;20039;-78
2023/05/11 05:57:52;;;;;;;0.10;0.10;;;;;;;;;;4942902;28;20031;-78
2023/05/11 06:00:38;;;;;;;0.10;0.10;;;;;;;;;;4954955;28;20040;-78
2023/05/11 06:03:28;;;;;;;0.10;0.10;;;;;;;;;;4958171;28;20136;-78
2023/05/11 06:06:13;;;;;;;0.10;0.10;;;;;;;;;;4957857;28;20049;-79
2023/05/11 06:08:59;;;;;;;0.10;0.10;;;;;;;;;;4960566;28;20121;-79
2023/05/11 06:11:45;;;;;;;0.10;0.10;;;;;;;;;;4957925;28;20045;-78
2023/05/11 06:14:31;;;;;;;0.20;0.20;;;;;;;;;;4958995;28;20431;-79
2023/05/11 06:17:18;;;;;;;0.20;0.20;;;;;;;;;;4944408;28;20118;-79
2023/05/11 06:20:05;;;;;;;0.10;0.10;;;;;;;;;;4943386;28;20027;-75
2023/05/11 06:22:51;;;;;;;0.10;0.10;;;;;;;;;;4957954;28;20042;-77
2023/05/11 06:25:37;;;;;;;0.10;0.10;;;;;;;;;;4944346;28;20047;-78
2023/05/11 06:28:23;;;;;;;0.10;0.10;;;;;;;;;;4948531;28;20070;-77
2023/05/11 06:31:11;;;;;;;0.10;0.10;;;;;;;;;;4927151;28;20050;-78
2023/05/11 06:33:59;;;;;;;0.20;0.20;;;;;;;;;;4923975;28;20300;-78
2023/05/11 06:36:47;;;;;;;0.10;0.10;;;;;;;;;;4937191;28;20031;-77
2023/05/11 06:39:36;;;;;;;0.10;0.10;;;;;;;;;;4939211;28;20038;-78
2023/05/11 06:42:22;;;;;;;0.10;0.10;;;;;;;;;;4925404;28;20054;-77
2023/05/11 06:45:09;;;;;;;0.20;0.20;;;;;;;;;;4938564;28;20114;-76
2023/05/11 06:47:54;;;;;;;0.10;0.10;;;;;;;;;;4924837;28;20065;-76
2023/05/11 06:50:41;;;;;;;0.10;0.10;;;;;;;;;;4922583;28;20791;-78
2023/05/11 06:53:31;;;;;;;0.10;0.10;;;;;;;;;;4937607;28;20039;-77
2023/05/11 06:56:17;;;;;;;0.20;0.20;;;;;;;;;;4940828;28;20122;-77
2023/05/11 06:59:02;;;;;;;0.10;0.10;;;;;;;;;;4940129;28;20102;-78
2023/05/11 07:01:48;;;;;;;0.10;0.10;;;;;;;;;;4936328;28;20040;-77
2023/05/11 07:04:34;;;;;;;0.10;0.10;;;;;;;;;;4937667;28;20042;-78
2023/05/11 07:07:21;;;;;;;0.20;0.20;;;;;;;;;;4938389;28;20046;-78
2023/05/11 07:10:07;;;;;;;0.10;0.10;;;;;;;;;;4937123;28;20035;-77
2023/05/11 07:12:53;;;;;;;0.40;0.30;;;;;;;;;;4923866;28;20069;-78
2023/05/11 07:15:39;;;;;;;0.10;0.10;;;;;;;;;;4939757;28;20036;-77
2023/05/11 07:18:24;;;;;;;0.20;0.20;;;;;;;;;;4940976;28;20253;-77
2023/05/11 07:21:10;;;;;;;0.10;0.10;;;;;;;;;;4940263;28;20380;-77
2023/05/11 07:23:56;;;;;;;0.20;0.20;;;;;;;;;;4940905;28;20042;-77
2023/05/11 07:26:41;;;;;;;0.10;0.10;;;;;;;;;;4938965;28;20400;-77
2023/05/11 07:29:27;;;;;;;0.20;0.20;;;;;;;;;;4957879;28;20055;-78
2023/05/11 07:32:13;;;;;;;0.10;0.10;;;;;;;;;;4954359;28;20058;-77
2023/05/11 07:34:58;;;;;;;0.20;0.20;;;;;;;;;;4957961;28;20041;-76
2023/05/11 07:37:44;;;;;;;0.17;0.17;;;;;;;;;;4956514;28;20066;-76
2023/05/11 07:40:30;;;;;;;0.10;0.10;;;;;;;;;;4957481;28;20321;-76
2023/05/11 07:43:16;;;;;;;0.20;0.20;;;;;;;;;;4944090;28;20359;-77
2023/05/11 07:46:01;;;;;;;0.20;0.20;;;;;;;;;;4956219;28;20046;-76
2023/05/11 07:48:48;;;;;;;0.10;0.10;;;;;;;;;;4941596;28;20038;-77
2023/05/11 07:51:33;;;;;;;0.20;0.20;;;;;;;;;;4955650;28;20035;-77
2023/05/11 07:54:19;;;;;;;0.15;0.15;;;;;;;;;;4957743;28;20125;-77
2023/05/11 07:57:05;;;;;;;0.10;0.10;;;;;;;;;;4956267;28;20428;-76
2023/05/11 07:59:51;;;;;;;0.10;0.10;;;;;;;;;;4958884;28;20045;-76
2023/05/11 08:02:36;;;;;;;0.10;0.10;;;;;;;;;;4954901;28;20043;-78
2023/05/11 08:05:22;;;;;;;0.20;0.20;;;;;;;;;;4962001;28;20034;-77
2023/05/11 08:08:08;;;;;;;0.20;0.20;;;;;;;;;;4959744;28;20035;-77
2023/05/11 08:10:53;;;;;;;0.20;0.20;;;;;;;;;;4959916;28;20444;-77
2023/05/11 08:13:39;;;;;;;0.10;0.10;;;;;;;;;;4960105;28;20110;-77
2023/05/11 08:16:25;;;;;;;0.10;0.10;;;;;;;;;;4962834;28;20137;-77
2023/05/11 08:19:11;;;;;;;0.10;0.10;;;;;;;;;;4962776;28;20422;-78
2023/05/11 08:21:58;;;;;;;0.10;0.10;;;;;;;;;;4961938;28;20468;-77
2023/05/11 08:24:43;;;;;;;0.10;0.10;;;;;;;;;;4961567;28;20070;-77
2023/05/11 08:27:31;;;;;;;0.20;0.20;;;;;;;;;;4960120;28;20034;-76
2023/05/11 08:30:19;;;;;;;0.10;0.10;;;;;;;;;;4960204;28;20031;-77
2023/05/11 08:33:06;;;;;;;0.10;0.10;;;;;;;;;;4960589;28;20042;-77
2023/05/11 08:35:52;;;;;;;0.10;0.10;;;;;;;;;;4960116;28;20034;-76
2023/05/11 08:38:38;;;;;;;0.10;0.10;;;;;;;;;;4961379;28;20404;-77
2023/05/11 08:41:24;;;;;;;0.10;0.10;;;;;;;;;;4960573;28;20739;-78
2023/05/11 08:44:09;;;;;;;0.10;0.10;;;;;;;;;;4959584;28;20510;-77
2023/05/11 08:46:56;;;;;;;0.20;0.20;;;;;;;;;;4959691;28;20029;-77
2023/05/11 08:49:42;;;;;;;0.10;0.10;;;;;;;;;;4959443;28;20089;-77
2023/05/11 08:52:29;;;;;;;0.10;0.10;;;;;;;;;;4959593;28;20070;-77
2023/05/11 08:55:14;;;;;;;0.13;0.13;;;;;;;;;;4959523;28;20157;-77
2023/05/11 08:58:02;;;;;;;0.15;0.15;;;;;;;;;;4946867;28;20039;-78
2023/05/11 09:00:48;;;;;;;0.17;0.17;;;;;;;;;;4960112;28;20047;-77
2023/05/11 09:03:35;;;;;;;0.20;0.20;;;;;;;;;;4961218;28;20045;-77
2023/05/11 09:06:22;;;;;;;0.15;0.15;;;;;;;;;;4960116;28;20077;-76
2023/05/11 09:09:08;;;;;;;0.10;0.10;;;;;;;;;;4959724;28;20046;-76
2023/05/11 09:11:54;;;;;;;0.10;0.10;;;;;;;;;;4958969;28;20073;-77
2023/05/11 09:14:39;;;;;;;0.10;0.10;;;;;;;;;;4960911;28;20487;-78
2023/05/11 09:17:27;;;;;;;0.10;0.10;;;;;;;;;;4958081;28;20388;-77
2023/05/11 09:20:13;;;;;;;0.10;0.10;;;;;;;;;;4958626;28;20031;-78
2023/05/11 09:22:58;;;;;;;0.10;0.10;;;;;;;;;;4961140;28;20042;-77
2023/05/11 09:25:44;;;;;;;0.10;0.10;;;;;;;;;;4959176;28;20071;-77
2023/05/11 09:28:30;;;;;;;0.10;0.10;;;;;;;;;;4959226;28;20484;-77
2023/05/11 09:31:33;;;;;;;0.10;0.10;;;;;;;;;;4956888;28;20391;-77
2023/05/11 09:34:22;;;;;;;0.10;0.10;;;;;;;;;;4959016;28;20115;-77
2023/05/11 09:37:14;;;;;;;0.10;0.10;;;;;;;;;;4959812;28;20047;-77
2023/05/11 09:40:00;;;;;;;0.10;0.10;;;;;;;;;;4959508;28;20539;-76
2023/05/11 09:42:49;;;;;;;0.10;0.10;;;;;;;;;;4958839;28;20065;-77
2023/05/11 09:45:39;;;;;;;0.10;0.10;;;;;;;;;;4958038;28;20043;-76
2023/05/11 09:48:26;;;;;;;0.10;0.10;;;;;;;;;;4960585;28;20038;-77
2023/05/11 09:51:12;;;;;;;0.10;0.10;;;;;;;;;;4960717;28;20073;-78
2023/05/11 09:53:58;;;;;;;0.10;0.10;;;;;;;;;;4960244;28;20027;-78
2023/05/11 09:56:47;;;;;;;0.10;0.10;;;;;;;;;;4957472;28;20118;-77
2023/05/11 09:59:37;;;;;;;0.10;0.10;;;;;;;;;;4957618;28;20038;-77
2023/05/11 10:02:23;;;;;;;0.10;0.10;;;;;;;;;;4958946;28;20045;-77
2023/05/11 10:05:12;;;;;;;0.20;0.20;;;;;;;;;;4954415;28;20496;-77
2023/05/11 10:07:59;;;;;;;0.10;0.10;;;;;;;;;;4943886;28;20035;-78
2023/05/11 10:10:45;;;;;;;0.10;0.10;;;;;;;;;;4942958;28;20031;-77
2023/05/11 10:13:31;;;;;;;0.20;0.20;;;;;;;;;;4957584;28;20038;-78
2023/05/11 10:16:18;;;;;;;0.10;0.10;;;;;;;;;;4958481;28;20553;-77
2023/05/11 10:19:04;;;;;;;0.10;0.10;;;;;;;;;;4943687;28;20106;-77
2023/05/11 10:21:51;;;;;;;0.20;0.20;;;;;;;;;;4956267;28;21154;-77
2023/05/11 10:24:37;;;;;;;0.20;0.20;;;;;;;;;;4957594;28;20364;-77
2023/05/11 10:27:23;;;;;;;0.10;0.10;;;;;;;;;;4957819;28;20047;-77
2023/05/11 10:30:09;;;;;;;0.20;0.20;;;;;;;;;;4959058;28;20502;-77
2023/05/11 10:32:56;;;;;;;0.17;0.17;;;;;;;;;;4958727;28;20083;-77
2023/05/11 10:35:43;;;;;;;0.13;0.13;;;;;;;;;;4941909;28;20035;-77
2023/05/11 10:38:28;;;;;;;0.10;0.10;;;;;;;;;;4958007;28;20511;-78
2023/05/11 10:41:37;;;;;;;0.10;0.10;;;;;;;;;;4958041;28;20046;-77
2023/05/11 10:44:42;;;;;;;0.10;0.10;;;;;;;;;;4958499;28;20059;-77
2023/05/11 10:47:52;;;;;;;0.10;0.10;;;;;;;;;;4958164;28;20041;-78
2023/05/11 10:50:40;;;;;;;0.20;0.20;;;;;;;;;;4955984;28;20047;-77
2023/05/11 10:53:49;;;;;;;0.25;0.25;;;;;;;;;;4958500;28;20045;-78
2023/05/11 10:56:54;;;;;;;0.10;0.10;;;;;;;;;;4956072;28;20061;-77
2023/05/11 11:00:05;;;;;;;0.20;0.20;;;;;;;;;;4957762;28;20027;-77
2023/05/11 11:02:51;;;;;;;0.10;0.10;;;;;;;;;;4955112;28;20415;-77
2023/05/11 11:05:37;;;;;;;0.10;0.10;;;;;;;;;;4959332;28;20130;-78
2023/05/11 11:08:23;;;;;;;0.20;0.20;;;;;;;;;;4958698;28;20043;-77
2023/05/11 11:11:27;;;;;;;0.10;0.10;;;;;;;;;;4958061;28;20046;-78
2023/05/11 11:14:13;;;;;;;0.10;0.10;;;;;;;;;;4956817;28;20384;-79
2023/05/11 11:17:15;;;;;;;0.10;0.10;;;;;;;;;;4956381;28;20046;-78
2023/05/11 11:20:03;;;;;;;0.20;0.20;;;;;;;;;;4955471;28;20026;-77
2023/05/11 11:22:48;;;;;;;0.10;0.10;;;;;;;;;;4956701;28;20551;-76
2023/05/11 11:25:52;;;;;;;0.20;0.20;;;;;;;;;;4956761;28;20042;-77
2023/05/11 11:28:53;;;;;;;0.10;0.10;;;;;;;;;;4957483;28;20058;-77
2023/05/11 11:31:39;;;;;;;0.20;0.20;;;;;;;;;;4956795;28;20507;-77
2023/05/11 11:34:28;;;;;;;0.20;0.20;;;;;;;;;;4958112;28;20403;-76
2023/05/11 11:37:15;;;;;;;0.10;0.10;;;;;;;;;;4957062;28;20043;-76
2023/05/11 11:40:02;;;;;;;0.20;0.20;;;;;;;;;;4957412;28;20510;-76
2023/05/11 11:42:48;;;;;;;0.10;0.10;;;;;;;;;;4957074;28;20128;-77
2023/05/11 11:45:35;;;;;;;0.20;0.20;;;;;;;;;;4957807;28;20046;-77
2023/05/11 11:48:32;;;;;;;0.20;0.20;;;;;;;;;;4941635;28;20034;-76
2023/05/11 11:51:18;;;;;;;0.10;0.10;;;;;;;;;;4958074;28;20097;-76
2023/05/11 11:54:03;;;;;;;0.10;0.10;;;;;;;;;;4958635;28;20043;-76
2023/05/11 11:56:49;;;;;;;0.20;0.20;;;;;;;;;;4957009;28;20165;-76
2023/05/11 11:59:45;;;;;;;0.10;0.10;;;;;;;;;;4957594;28;20112;-76
2023/05/11 12:02:32;;;;;;;0.20;0.20;;;;;;;;;;4956047;28;20045;-76
2023/05/11 12:05:18;;;;;;;0.10;0.10;;;;;;;;;;4957591;28;20061;-76
2023/05/11 12:08:05;;;;;;;0.20;0.20;;;;;;;;;;4958432;28;20506;-76
2023/05/11 12:10:53;;;;;;;0.25;0.22;;;;;;;;;;4956383;28;20172;-77
2023/05/11 12:13:41;;;;;;;0.15;0.15;;;;;;;;;;4956826;28;20252;-75
2023/05/11 12:16:27;;;;;;;0.15;0.15;;;;;;;;;;4957659;28;20593;-77
2023/05/11 12:19:23;;;;;;;0.10;0.10;;;;;;;;;;4957727;28;20039;-76
2023/05/11 12:22:09;;;;;;;0.15;0.15;;;;;;;;;;4957939;28;20121;-77
2023/05/11 12:24:56;;;;;;;0.10;0.10;;;;;;;;;;4959353;28;20390;-76
2023/05/11 12:27:57;;;;;;;0.10;0.10;;;;;;;;;;4958749;28;20054;-77
2023/05/11 12:30:53;;;;;;;0.10;0.10;;;;;;;;;;4954842;28;20058;-77
2023/05/11 12:33:50;;;;;;;0.20;0.20;;;;;;;;;;4957314;28;20128;-77
2023/05/11 12:36:36;;;;;;;0.20;0.20;;;;;;;;;;4956309;28;20866;-77
2023/05/11 12:39:22;;;;;;;0.13;0.13;;;;;;;;;;4956323;28;20031;-76
2023/05/11 12:42:17;;;;;;;0.10;0.10;;;;;;;;;;4957906;28;20871;-76
2023/05/11 12:45:04;;;;;;;0.10;0.10;;;;;;;;;;4957801;28;20086;-76
2023/05/11 12:47:50;;;;;;;0.10;0.10;;;;;;;;;;4957277;28;20134;-76
2023/05/11 12:50:40;;;;;;;0.20;0.20;;;;;;;;;;4958381;28;20050;-76
2023/05/11 12:53:26;;;;;;;0.15;0.15;;;;;;;;;;4958800;28;20038;-76
2023/05/11 12:56:12;;;;;;;0.10;0.10;;;;;;;;;;4962647;28;20117;-76
2023/05/11 12:58:57;;;;;;;0.10;0.10;;;;;;;;;;4961699;28;20778;-77
2023/05/11 13:01:43;;;;;;;0.13;0.13;;;;;;;;;;4959518;28;20089;-76
2023/05/11 13:04:29;;;;;;;0.20;0.20;;;;;;;;;;4946533;28;20038;-76
2023/05/11 13:07:25;;;;;;;0.20;0.20;;;;;;;;;;4961100;28;20125;-76
2023/05/11 13:10:12;;;;;;;0.10;0.10;;;;;;;;;;4944054;28;20066;-77
2023/05/11 13:12:58;;;;;;;0.20;0.20;;;;;;;;;;4957963;28;20425;-76
2023/05/11 13:15:50;;;;;;;0.20;0.20;;;;;;;;;;4958912;28;20045;-76
2023/05/11 13:18:36;;;;;;;0.20;0.20;;;;;;;;;;4958386;28;20035;-76
2023/05/11 13:21:22;;;;;;;0.10;0.10;;;;;;;;;;4960072;28;20039;-77
2023/05/11 13:24:18;;;;;;;0.10;0.10;;;;;;;;;;4959719;28;20043;-77
2023/05/11 13:27:03;;;;;;;0.10;0.10;;;;;;;;;;4958601;28;20047;-76
2023/05/11 13:29:49;;;;;;;0.10;0.10;;;;;;;;;;4939960;28;20332;-76
2023/05/11 13:32:35;;;;;;;0.13;0.13;;;;;;;;;;4939804;28;20883;-76
2023/05/11 13:35:21;;;;;;;0.10;0.10;;;;;;;;;;4939881;28;20043;-76
2023/05/11 13:38:07;;;;;;;0.10;0.10;;;;;;;;;;4940263;28;20039;-76
2023/05/11 13:40:53;;;;;;;0.10;0.10;;;;;;;;;;4939206;28;20043;-76
2023/05/11 13:43:38;;;;;;;0.10;0.10;;;;;;;;;;4938915;28;20042;-76
2023/05/11 13:46:24;;;;;;;0.20;0.20;;;;;;;;;;4939621;28;20095;-76
2023/05/11 13:49:10;;;;;;;0.10;0.10;;;;;;;;;;4940315;28;20038;-77
2023/05/11 13:51:56;;;;;;;0.10;0.10;;;;;;;;;;4940227;28;20093;-76
2023/05/11 13:54:42;;;;;;;0.10;0.10;;;;;;;;;;4937286;28;20069;-76
2023/05/11 13:57:27;;;;;;;0.13;0.13;;;;;;;;;;4940654;28;20039;-77
2023/05/11 14:00:14;;;;;;;0.10;0.10;;;;;;;;;;4942246;28;20032;-77
2023/05/11 14:02:59;;;;;;;0.10;0.10;;;;;;;;;;4924925;28;20062;-76
2023/05/11 14:05:48;;;;;;;0.20;0.20;;;;;;;;;;4938652;28;20121;-76
2023/05/11 14:08:34;;;;;;;0.10;0.10;;;;;;;;;;4939584;28;20134;-77
2023/05/11 14:11:20;;;;;;;0.20;0.20;;;;;;;;;;4938854;28;20989;-76
2023/05/11 14:14:06;;;;;;;0.10;0.10;;;;;;;;;;4940170;28;20452;-77
2023/05/11 14:16:51;;;;;;;0.10;0.10;;;;;;;;;;4923771;28;20039;-76
2023/05/11 14:19:37;;;;;;;0.15;0.15;;;;;;;;;;4938357;28;20035;-76
2023/05/11 14:22:23;;;;;;;0.17;0.17;;;;;;;;;;4939202;28;20039;-76
2023/05/11 14:25:08;;;;;;;0.20;0.20;;;;;;;;;;4913091;28;20255;-76
2023/05/11 14:27:54;;;;;;;0.10;0.10;;;;;;;;;;4945502;28;20059;-76
2023/05/11 14:30:40;;;;;;;0.20;0.20;;;;;;;;;;4956096;28;20042;-76
2023/05/11 14:33:26;;;;;;;0.10;0.10;;;;;;;;;;4959513;28;20054;-76
2023/05/11 14:36:13;;;;;;;0.10;0.10;;;;;;;;;;4960811;28;20043;-76
2023/05/11 14:38:58;;;;;;;0.10;0.10;;;;;;;;;;4960499;28;20503;-76
2023/05/11 14:41:44;;;;;;;0.10;0.10;;;;;;;;;;4958964;28;20042;-76
2023/05/11 14:44:30;;;;;;;0.10;0.10;;;;;;;;;;4957852;28;20047;-76
2023/05/11 14:47:16;;;;;;;0.17;0.17;;;;;;;;;;4943303;28;20114;-76
2023/05/11 14:50:02;;;;;;;0.10;0.10;;;;;;;;;;4927258;28;20105;-76
2023/05/11 14:52:48;;;;;;;0.10;0.10;;;;;;;;;;4958360;28;20456;-76
2023/05/11 14:55:34;;;;;;;0.10;0.10;;;;;;;;;;4956548;28;20039;-76
2023/05/11 14:58:20;;;;;;;0.10;0.10;;;;;;;;;;4947451;28;20051;-76
2023/05/11 15:01:07;;;;;;;0.20;0.20;;;;;;;;;;4958329;28;20034;-76
2023/05/11 15:03:52;;;;;;;0.17;0.17;;;;;;;;;;4955963;28;20039;-76
2023/05/11 15:06:38;;;;;;;0.10;0.10;;;;;;;;;;4957708;28;20043;-76
2023/05/11 15:09:25;;;;;;;0.10;0.10;;;;;;;;;;4958222;28;20043;-76
2023/05/11 15:12:11;;;;;;;0.10;0.10;;;;;;;;;;4957707;28;20459;-76
2023/05/11 15:14:57;;;;;;;0.22;0.20;;;;;;;;;;4957156;28;20049;-77
2023/05/11 15:17:42;;;;;;;0.20;0.20;;;;;;;;;;4957228;28;20057;-77
2023/05/11 15:20:28;;;;;;;0.10;0.10;;;;;;;;;;4958040;28;20058;-76
2023/05/11 15:23:15;;;;;;;0.10;0.10;;;;;;;;;;4945343;28;20404;-76
2023/05/11 15:26:01;;;;;;;0.10;0.10;;;;;;;;;;4943835;28;20047;-76
2023/05/11 15:28:46;;;;;;;0.10;0.10;;;;;;;;;;4956205;28;20046;-76
2023/05/11 15:31:32;;;;;;;0.10;0.10;;;;;;;;;;4955723;28;20051;-76
2023/05/11 15:34:18;;;;;;;0.10;0.10;;;;;;;;;;4955139;28;20511;-76
2023/05/11 15:37:06;;;;;;;0.10;0.10;;;;;;;;;;4939836;28;20513;-76
2023/05/11 15:39:52;;;;;;;0.10;0.10;;;;;;;;;;4957214;28;20066;-76
2023/05/11 15:42:38;;;;;;;0.10;0.10;;;;;;;;;;4953530;28;20038;-76
2023/05/11 15:45:24;;;;;;;0.20;0.20;;;;;;;;;;4943720;28;20038;-76
2023/05/11 15:48:11;;;;;;;0.10;0.10;;;;;;;;;;4943411;28;20074;-77
2023/05/11 15:50:59;;;;;;;0.15;0.15;;;;;;;;;;4957690;28;20852;-76
2023/05/11 15:53:45;;;;;;;0.20;0.20;;;;;;;;;;4953179;28;20046;-76
2023/05/11 15:56:34;;;;;;;0.10;0.10;;;;;;;;;;4956438;28;20109;-78
2023/05/11 15:59:19;;;;;;;0.17;0.17;;;;;;;;;;4955666;28;20408;-76
2023/05/11 16:02:06;;;;;;;0.10;0.10;;;;;;;;;;4955294;28;20284;-76
2023/05/11 16:04:52;;;;;;;0.17;0.17;;;;;;;;;;4955842;28;20440;-77
2023/05/11 16:07:37;;;;;;;0.20;0.20;;;;;;;;;;4956475;28;20035;-77
2023/05/11 16:10:23;;;;;;;0.10;0.10;;;;;;;;;;4957762;28;20106;-76
2023/05/11 16:13:09;;;;;;;0.15;0.15;;;;;;;;;;4957467;28;20062;-77
2023/05/11 16:15:55;;;;;;;0.10;0.10;;;;;;;;;;4957279;28;20114;-76
2023/05/11 16:18:40;;;;;;;0.10;0.10;;;;;;;;;;4955368;28;20066;-77
2023/05/11 16:21:26;;;;;;;0.10;0.10;;;;;;;;;;4956673;28;20027;-76
2023/05/11 16:24:12;;;;;;;0.10;0.10;;;;;;;;;;4942954;28;20092;-76
2023/05/11 16:26:58;;;;;;;0.10;0.10;;;;;;;;;;4960959;28;20369;-76
2023/05/11 16:29:44;;;;;;;0.10;0.10;;;;;;;;;;4925931;28;20047;-76
2023/05/11 16:32:29;;;;;;;0.20;0.20;;;;;;;;;;4940895;28;20035;-77
2023/05/11 16:35:15;;;;;;;0.10;0.10;;;;;;;;;;4941012;28;20063;-75
2023/05/11 16:38:01;;;;;;;0.10;0.10;;;;;;;;;;4942521;28;20293;-75
2023/05/11 16:40:47;;;;;;;0.17;0.17;;;;;;;;;;4926682;28;20035;-76
2023/05/11 16:43:33;;;;;;;0.10;0.10;;;;;;;;;;4940139;28;20666;-76